sensor_id;sensor_type;location;lat;lon;timestamp;P1;durP1;ratioP1;P2;durP2;ratioP2
31906;SDS011;18455;50.858;13.662;2022-09-09T00:02:05;3.28;;;1.27;;
31906;SDS011;18455;50.858;13.662;2022-09-09T00:12:54;3.65;;;0.98;;
31906;SDS011;18455;50.858;13.662;2022-09-09T00:18:07;4.25;;;1.30;;
31906;SDS011;18455;50.858;13.662;2022-09-09T00:23:30;2.13;;;1.08;;
31906;SDS011;18455;50.858;13.662;2022-09-09T00:28:36;3.15;;;1.20;;
31906;SDS011;18455;50.858;13.662;2022-09-09T00:33:45;2.17;;;1.10;;
31906;SDS011;18455;50.858;13.662;2022-09-09T00:38:51;3.97;;;1.17;;
31906;SDS011;18455;50.858;13.662;2022-09-09T00:44:14;4.13;;;1.10;;
31906;SDS011;18455;50.858;13.662;2022-09-09T00:49:32;2.33;;;1.08;;
31906;SDS011;18455;50.858;13.662;2022-09-09T00:59:47;2.92;;;1.05;;
31906;SDS011;18455;50.858;13.662;2022-09-09T01:04:48;2.90;;;1.50;;
31906;SDS011;18455;50.858;13.662;2022-09-09T01:15:08;5.90;;;1.42;;
31906;SDS011;18455;50.858;13.662;2022-09-09T01:31:20;4.07;;;1.15;;
31906;SDS011;18455;50.858;13.662;2022-09-09T01:36:33;2.58;;;1.40;;
31906;SDS011;18455;50.858;13.662;2022-09-09T01:41:38;6.25;;;1.20;;
31906;SDS011;18455;50.858;13.662;2022-09-09T01:46:42;2.90;;;1.25;;
31906;SDS011;18455;50.858;13.662;2022-09-09T01:51:50;1.25;;;1.00;;
31906;SDS011;18455;50.858;13.662;2022-09-09T02:02:27;4.30;;;1.10;;
31906;SDS011;18455;50.858;13.662;2022-09-09T02:07:47;2.40;;;1.00;;
31906;SDS011;18455;50.858;13.662;2022-09-09T02:13:12;2.50;;;0.90;;
31906;SDS011;18455;50.858;13.662;2022-09-09T02:18:14;5.78;;;1.10;;
31906;SDS011;18455;50.858;13.662;2022-09-09T02:23:18;3.05;;;1.00;;
31906;SDS011;18455;50.858;13.662;2022-09-09T02:28:23;3.35;;;1.15;;
31906;SDS011;18455;50.858;13.662;2022-09-09T02:33:27;3.92;;;1.42;;
31906;SDS011;18455;50.858;13.662;2022-09-09T02:38:29;2.78;;;1.00;;
31906;SDS011;18455;50.858;13.662;2022-09-09T02:43:40;2.25;;;1.02;;
31906;SDS011;18455;50.858;13.662;2022-09-09T02:54:07;5.32;;;1.10;;
31906;SDS011;18455;50.858;13.662;2022-09-09T02:59:31;4.20;;;1.40;;
31906;SDS011;18455;50.858;13.662;2022-09-09T03:04:32;3.35;;;1.17;;
31906;SDS011;18455;50.858;13.662;2022-09-09T03:09:32;2.35;;;1.10;;
31906;SDS011;18455;50.858;13.662;2022-09-09T03:14:33;5.88;;;1.40;;
31906;SDS011;18455;50.858;13.662;2022-09-09T03:19:34;4.57;;;0.93;;
31906;SDS011;18455;50.858;13.662;2022-09-09T03:24:35;4.13;;;1.20;;
31906;SDS011;18455;50.858;13.662;2022-09-09T03:29:38;2.13;;;1.25;;
31906;SDS011;18455;50.858;13.662;2022-09-09T03:34:42;1.98;;;0.80;;
31906;SDS011;18455;50.858;13.662;2022-09-09T03:39:45;4.35;;;0.98;;
31906;SDS011;18455;50.858;13.662;2022-09-09T03:44:47;1.40;;;0.90;;
31906;SDS011;18455;50.858;13.662;2022-09-09T03:49:52;5.68;;;1.17;;
31906;SDS011;18455;50.858;13.662;2022-09-09T03:54:53;2.05;;;0.90;;
31906;SDS011;18455;50.858;13.662;2022-09-09T03:59:54;2.08;;;0.90;;
31906;SDS011;18455;50.858;13.662;2022-09-09T04:04:55;4.32;;;0.95;;
31906;SDS011;18455;50.858;13.662;2022-09-09T04:09:56;5.47;;;1.17;;
31906;SDS011;18455;50.858;13.662;2022-09-09T04:14:57;5.75;;;1.00;;
31906;SDS011;18455;50.858;13.662;2022-09-09T04:19:57;2.15;;;0.80;;
31906;SDS011;18455;50.858;13.662;2022-09-09T04:24:58;1.52;;;1.02;;
31906;SDS011;18455;50.858;13.662;2022-09-09T04:29:58;2.00;;;0.80;;
31906;SDS011;18455;50.858;13.662;2022-09-09T04:35:01;3.75;;;1.02;;
31906;SDS011;18455;50.858;13.662;2022-09-09T04:40:02;3.03;;;1.30;;
31906;SDS011;18455;50.858;13.662;2022-09-09T04:45:04;9.40;;;0.90;;
31906;SDS011;18455;50.858;13.662;2022-09-09T04:50:11;3.75;;;0.85;;
31906;SDS011;18455;50.858;13.662;2022-09-09T04:55:12;2.15;;;1.10;;
31906;SDS011;18455;50.858;13.662;2022-09-09T05:00:15;1.75;;;0.90;;
31906;SDS011;18455;50.858;13.662;2022-09-09T05:05:18;4.32;;;0.80;;
31906;SDS011;18455;50.858;13.662;2022-09-09T05:10:20;7.20;;;1.00;;
31906;SDS011;18455;50.858;13.662;2022-09-09T05:15:22;6.22;;;1.00;;
31906;SDS011;18455;50.858;13.662;2022-09-09T05:20:23;1.40;;;0.77;;
31906;SDS011;18455;50.858;13.662;2022-09-09T05:25:24;3.08;;;1.08;;
31906;SDS011;18455;50.858;13.662;2022-09-09T05:30:28;1.10;;;0.70;;
31906;SDS011;18455;50.858;13.662;2022-09-09T05:35:29;2.17;;;0.80;;
31906;SDS011;18455;50.858;13.662;2022-09-09T05:40:30;2.00;;;0.95;;
31906;SDS011;18455;50.858;13.662;2022-09-09T05:45:31;2.22;;;0.90;;
31906;SDS011;18455;50.858;13.662;2022-09-09T05:50:31;3.97;;;0.90;;
31906;SDS011;18455;50.858;13.662;2022-09-09T05:55:32;2.10;;;0.90;;
31906;SDS011;18455;50.858;13.662;2022-09-09T06:00:32;5.20;;;0.88;;
31906;SDS011;18455;50.858;13.662;2022-09-09T06:05:33;4.93;;;1.23;;
31906;SDS011;18455;50.858;13.662;2022-09-09T06:10:35;5.03;;;1.00;;
31906;SDS011;18455;50.858;13.662;2022-09-09T06:15:36;5.85;;;1.60;;
31906;SDS011;18455;50.858;13.662;2022-09-09T06:20:37;2.88;;;1.15;;
31906;SDS011;18455;50.858;13.662;2022-09-09T06:25:38;2.70;;;1.20;;
31906;SDS011;18455;50.858;13.662;2022-09-09T06:30:42;2.35;;;0.90;;
31906;SDS011;18455;50.858;13.662;2022-09-09T06:35:42;5.10;;;0.95;;
31906;SDS011;18455;50.858;13.662;2022-09-09T06:40:54;2.13;;;0.85;;
31906;SDS011;18455;50.858;13.662;2022-09-09T06:45:57;4.28;;;1.15;;
31906;SDS011;18455;50.858;13.662;2022-09-09T06:51:20;1.92;;;0.90;;
31906;SDS011;18455;50.858;13.662;2022-09-09T07:01:29;5.13;;;1.00;;
31906;SDS011;18455;50.858;13.662;2022-09-09T07:06:35;3.45;;;0.90;;
31906;SDS011;18455;50.858;13.662;2022-09-09T07:11:38;3.63;;;1.02;;
31906;SDS011;18455;50.858;13.662;2022-09-09T07:16:45;5.45;;;1.00;;
31906;SDS011;18455;50.858;13.662;2022-09-09T07:21:47;2.60;;;0.82;;
31906;SDS011;18455;50.858;13.662;2022-09-09T07:26:52;7.30;;;1.00;;
31906;SDS011;18455;50.858;13.662;2022-09-09T07:31:52;6.40;;;0.90;;
31906;SDS011;18455;50.858;13.662;2022-09-09T07:36:58;3.42;;;1.02;;
31906;SDS011;18455;50.858;13.662;2022-09-09T07:41:59;6.10;;;1.00;;
31906;SDS011;18455;50.858;13.662;2022-09-09T07:47:02;5.78;;;0.90;;
31906;SDS011;18455;50.858;13.662;2022-09-09T07:52:08;1.92;;;0.80;;
31906;SDS011;18455;50.858;13.662;2022-09-09T07:57:10;2.20;;;0.70;;
31906;SDS011;18455;50.858;13.662;2022-09-09T08:02:11;3.60;;;0.90;;
31906;SDS011;18455;50.858;13.662;2022-09-09T08:07:12;3.13;;;1.00;;
31906;SDS011;18455;50.858;13.662;2022-09-09T08:12:19;4.47;;;1.02;;
31906;SDS011;18455;50.858;13.662;2022-09-09T08:17:20;3.20;;;1.02;;
31906;SDS011;18455;50.858;13.662;2022-09-09T08:22:20;6.78;;;1.20;;
31906;SDS011;18455;50.858;13.662;2022-09-09T08:27:22;3.00;;;1.00;;
31906;SDS011;18455;50.858;13.662;2022-09-09T08:32:22;2.83;;;0.88;;
31906;SDS011;18455;50.858;13.662;2022-09-09T08:37:23;5.13;;;1.50;;
31906;SDS011;18455;50.858;13.662;2022-09-09T08:42:32;5.38;;;1.50;;
31906;SDS011;18455;50.858;13.662;2022-09-09T08:58:23;6.07;;;1.08;;
31906;SDS011;18455;50.858;13.662;2022-09-09T09:03:37;6.90;;;1.10;;
31906;SDS011;18455;50.858;13.662;2022-09-09T09:08:47;2.35;;;0.90;;
31906;SDS011;18455;50.858;13.662;2022-09-09T09:19:19;7.43;;;1.27;;
31906;SDS011;18455;50.858;13.662;2022-09-09T09:24:29;5.30;;;1.58;;
31906;SDS011;18455;50.858;13.662;2022-09-09T09:29:55;4.63;;;1.55;;
31906;SDS011;18455;50.858;13.662;2022-09-09T09:34:58;5.78;;;1.42;;
31906;SDS011;18455;50.858;13.662;2022-09-09T09:40:08;12.30;;;2.60;;
31906;SDS011;18455;50.858;13.662;2022-09-09T09:50:35;2.95;;;1.33;;
31906;SDS011;18455;50.858;13.662;2022-09-09T09:55:50;5.00;;;1.35;;
31906;SDS011;18455;50.858;13.662;2022-09-09T10:00:56;4.18;;;1.40;;
31906;SDS011;18455;50.858;13.662;2022-09-09T10:06:00;6.25;;;1.33;;
31906;SDS011;18455;50.858;13.662;2022-09-09T10:11:06;2.63;;;1.17;;
31906;SDS011;18455;50.858;13.662;2022-09-09T10:22:16;4.65;;;1.20;;
31906;SDS011;18455;50.858;13.662;2022-09-09T10:27:28;3.28;;;1.38;;
31906;SDS011;18455;50.858;13.662;2022-09-09T10:43:12;4.80;;;1.85;;
31906;SDS011;18455;50.858;13.662;2022-09-09T10:48:22;7.47;;;2.20;;
31906;SDS011;18455;50.858;13.662;2022-09-09T10:58:54;3.47;;;1.92;;
31906;SDS011;18455;50.858;13.662;2022-09-09T11:04:02;6.53;;;2.80;;
31906;SDS011;18455;50.858;13.662;2022-09-09T11:09:15;8.63;;;2.17;;
31906;SDS011;18455;50.858;13.662;2022-09-09T11:14:19;4.45;;;1.65;;
31906;SDS011;18455;50.858;13.662;2022-09-09T11:24:40;3.17;;;1.40;;
31906;SDS011;18455;50.858;13.662;2022-09-09T11:30:05;5.68;;;1.58;;
31906;SDS011;18455;50.858;13.662;2022-09-09T11:35:18;4.95;;;1.38;;
31906;SDS011;18455;50.858;13.662;2022-09-09T11:40:26;1.95;;;1.23;;
31906;SDS011;18455;50.858;13.662;2022-09-09T11:45:27;3.60;;;1.50;;
31906;SDS011;18455;50.858;13.662;2022-09-09T11:55:31;4.32;;;1.40;;
31906;SDS011;18455;50.858;13.662;2022-09-09T12:00:37;2.20;;;1.25;;
31906;SDS011;18455;50.858;13.662;2022-09-09T12:05:44;4.60;;;1.58;;
31906;SDS011;18455;50.858;13.662;2022-09-09T12:10:53;7.82;;;2.63;;
31906;SDS011;18455;50.858;13.662;2022-09-09T12:15:56;4.82;;;1.50;;
31906;SDS011;18455;50.858;13.662;2022-09-09T12:21:02;2.60;;;1.20;;
31906;SDS011;18455;50.858;13.662;2022-09-09T12:26:16;4.30;;;1.33;;
31906;SDS011;18455;50.858;13.662;2022-09-09T12:36:55;7.32;;;3.15;;
31906;SDS011;18455;50.858;13.662;2022-09-09T12:41:58;5.35;;;1.30;;
31906;SDS011;18455;50.858;13.662;2022-09-09T12:47:00;1.27;;;0.77;;
31906;SDS011;18455;50.858;13.662;2022-09-09T12:52:03;2.50;;;0.95;;
31906;SDS011;18455;50.858;13.662;2022-09-09T12:57:09;1.90;;;0.98;;
31906;SDS011;18455;50.858;13.662;2022-09-09T13:02:21;2.00;;;0.77;;
31906;SDS011;18455;50.858;13.662;2022-09-09T13:07:22;0.80;;;0.80;;
31906;SDS011;18455;50.858;13.662;2022-09-09T13:12:24;2.28;;;0.90;;
31906;SDS011;18455;50.858;13.662;2022-09-09T13:17:25;1.83;;;0.88;;
31906;SDS011;18455;50.858;13.662;2022-09-09T13:22:35;1.58;;;0.75;;
31906;SDS011;18455;50.858;13.662;2022-09-09T13:27:41;4.25;;;1.00;;
31906;SDS011;18455;50.858;13.662;2022-09-09T13:32:42;3.78;;;0.80;;
31906;SDS011;18455;50.858;13.662;2022-09-09T13:37:43;1.05;;;0.50;;
31906;SDS011;18455;50.858;13.662;2022-09-09T13:42:43;3.63;;;0.80;;
31906;SDS011;18455;50.858;13.662;2022-09-09T13:47:44;2.47;;;0.70;;
31906;SDS011;18455;50.858;13.662;2022-09-09T13:52:49;1.80;;;0.90;;
31906;SDS011;18455;50.858;13.662;2022-09-09T13:57:55;4.35;;;0.98;;
31906;SDS011;18455;50.858;13.662;2022-09-09T14:02:55;4.53;;;1.00;;
31906;SDS011;18455;50.858;13.662;2022-09-09T14:07:56;1.15;;;0.90;;
31906;SDS011;18455;50.858;13.662;2022-09-09T14:12:57;1.75;;;0.73;;
31906;SDS011;18455;50.858;13.662;2022-09-09T14:17:57;4.00;;;1.33;;
31906;SDS011;18455;50.858;13.662;2022-09-09T14:22:58;4.05;;;1.30;;
31906;SDS011;18455;50.858;13.662;2022-09-09T14:27:59;2.40;;;0.90;;
31906;SDS011;18455;50.858;13.662;2022-09-09T14:32:59;5.93;;;1.20;;
31906;SDS011;18455;50.858;13.662;2022-09-09T14:38:00;1.90;;;1.17;;
31906;SDS011;18455;50.858;13.662;2022-09-09T14:43:01;1.35;;;0.77;;
31906;SDS011;18455;50.858;13.662;2022-09-09T14:48:02;3.33;;;1.00;;
31906;SDS011;18455;50.858;13.662;2022-09-09T14:53:03;2.10;;;0.80;;
31906;SDS011;18455;50.858;13.662;2022-09-09T14:58:04;3.40;;;0.93;;
31906;SDS011;18455;50.858;13.662;2022-09-09T15:03:06;4.57;;;0.85;;
31906;SDS011;18455;50.858;13.662;2022-09-09T15:08:06;4.53;;;1.33;;
31906;SDS011;18455;50.858;13.662;2022-09-09T15:13:06;5.22;;;1.00;;
31906;SDS011;18455;50.858;13.662;2022-09-09T15:18:07;5.85;;;0.95;;
31906;SDS011;18455;50.858;13.662;2022-09-09T15:23:07;3.67;;;1.50;;
31906;SDS011;18455;50.858;13.662;2022-09-09T15:28:08;4.13;;;1.30;;
31906;SDS011;18455;50.858;13.662;2022-09-09T15:33:09;3.20;;;1.30;;
31906;SDS011;18455;50.858;13.662;2022-09-09T15:38:10;3.95;;;1.10;;
31906;SDS011;18455;50.858;13.662;2022-09-09T15:43:12;4.30;;;1.20;;
31906;SDS011;18455;50.858;13.662;2022-09-09T15:48:13;3.17;;;1.20;;
31906;SDS011;18455;50.858;13.662;2022-09-09T15:53:13;3.72;;;1.40;;
31906;SDS011;18455;50.858;13.662;2022-09-09T15:58:14;2.30;;;1.40;;
31906;SDS011;18455;50.858;13.662;2022-09-09T16:03:14;4.90;;;1.50;;
31906;SDS011;18455;50.858;13.662;2022-09-09T16:08:15;6.82;;;1.50;;
31906;SDS011;18455;50.858;13.662;2022-09-09T16:13:15;2.97;;;1.20;;
31906;SDS011;18455;50.858;13.662;2022-09-09T16:18:15;6.13;;;1.40;;
31906;SDS011;18455;50.858;13.662;2022-09-09T16:23:16;3.60;;;1.60;;
31906;SDS011;18455;50.858;13.662;2022-09-09T16:28:16;8.13;;;2.13;;
31906;SDS011;18455;50.858;13.662;2022-09-09T16:33:17;6.75;;;2.03;;
31906;SDS011;18455;50.858;13.662;2022-09-09T16:38:17;5.53;;;2.47;;
31906;SDS011;18455;50.858;13.662;2022-09-09T16:43:18;6.03;;;3.00;;
31906;SDS011;18455;50.858;13.662;2022-09-09T16:48:18;5.65;;;2.20;;
31906;SDS011;18455;50.858;13.662;2022-09-09T16:53:19;6.45;;;2.38;;
31906;SDS011;18455;50.858;13.662;2022-09-09T16:58:20;6.22;;;2.63;;
31906;SDS011;18455;50.858;13.662;2022-09-09T17:03:20;5.18;;;1.98;;
31906;SDS011;18455;50.858;13.662;2022-09-09T17:08:20;4.05;;;1.92;;
31906;SDS011;18455;50.858;13.662;2022-09-09T17:13:21;4.38;;;1.90;;
31906;SDS011;18455;50.858;13.662;2022-09-09T17:18:22;5.72;;;1.98;;
31906;SDS011;18455;50.858;13.662;2022-09-09T17:23:22;6.32;;;2.60;;
31906;SDS011;18455;50.858;13.662;2022-09-09T17:28:22;6.40;;;2.80;;
31906;SDS011;18455;50.858;13.662;2022-09-09T17:33:27;4.88;;;2.67;;
31906;SDS011;18455;50.858;13.662;2022-09-09T17:38:30;9.75;;;4.40;;
31906;SDS011;18455;50.858;13.662;2022-09-09T17:43:31;9.93;;;2.50;;
31906;SDS011;18455;50.858;13.662;2022-09-09T17:48:32;8.85;;;1.83;;
31906;SDS011;18455;50.858;13.662;2022-09-09T17:53:36;1.85;;;1.02;;
31906;SDS011;18455;50.858;13.662;2022-09-09T17:58:38;3.10;;;1.50;;
31906;SDS011;18455;50.858;13.662;2022-09-09T18:03:39;3.45;;;1.98;;
31906;SDS011;18455;50.858;13.662;2022-09-09T18:08:40;6.28;;;1.60;;
31906;SDS011;18455;50.858;13.662;2022-09-09T18:13:41;5.75;;;2.95;;
31906;SDS011;18455;50.858;13.662;2022-09-09T18:18:41;25.67;;;12.75;;
31906;SDS011;18455;50.858;13.662;2022-09-09T18:23:42;17.30;;;9.27;;
31906;SDS011;18455;50.858;13.662;2022-09-09T18:28:46;16.77;;;9.80;;
31906;SDS011;18455;50.858;13.662;2022-09-09T18:33:48;24.88;;;12.85;;
31906;SDS011;18455;50.858;13.662;2022-09-09T18:38:49;5.82;;;3.22;;
31906;SDS011;18455;50.858;13.662;2022-09-09T18:43:50;6.70;;;2.70;;
31906;SDS011;18455;50.858;13.662;2022-09-09T18:48:52;5.25;;;2.70;;
31906;SDS011;18455;50.858;13.662;2022-09-09T18:53:53;5.13;;;2.05;;
31906;SDS011;18455;50.858;13.662;2022-09-09T18:58:56;4.47;;;3.20;;
31906;SDS011;18455;50.858;13.662;2022-09-09T19:03:57;8.32;;;2.03;;
31906;SDS011;18455;50.858;13.662;2022-09-09T19:08:59;7.57;;;1.80;;
31906;SDS011;18455;50.858;13.662;2022-09-09T19:14:03;7.15;;;1.88;;
31906;SDS011;18455;50.858;13.662;2022-09-09T19:19:05;1.40;;;1.27;;
31906;SDS011;18455;50.858;13.662;2022-09-09T19:29:22;4.35;;;1.10;;
31906;SDS011;18455;50.858;13.662;2022-09-09T19:34:24;4.85;;;1.63;;
31906;SDS011;18455;50.858;13.662;2022-09-09T19:39:25;2.05;;;1.40;;
31906;SDS011;18455;50.858;13.662;2022-09-09T19:44:26;3.75;;;1.33;;
31906;SDS011;18455;50.858;13.662;2022-09-09T19:49:26;3.63;;;1.15;;
31906;SDS011;18455;50.858;13.662;2022-09-09T19:54:26;3.70;;;2.08;;
31906;SDS011;18455;50.858;13.662;2022-09-09T19:59:27;16.80;;;10.55;;
31906;SDS011;18455;50.858;13.662;2022-09-09T20:04:27;5.38;;;3.70;;
31906;SDS011;18455;50.858;13.662;2022-09-09T20:09:27;2.15;;;1.35;;
31906;SDS011;18455;50.858;13.662;2022-09-09T20:14:29;2.10;;;0.75;;
31906;SDS011;18455;50.858;13.662;2022-09-09T20:19:29;1.10;;;1.00;;
31906;SDS011;18455;50.858;13.662;2022-09-09T20:24:30;4.95;;;1.00;;
31906;SDS011;18455;50.858;13.662;2022-09-09T20:29:30;2.67;;;0.80;;
31906;SDS011;18455;50.858;13.662;2022-09-09T20:34:30;8.57;;;1.00;;
31906;SDS011;18455;50.858;13.662;2022-09-09T20:39:31;2.55;;;0.90;;
31906;SDS011;18455;50.858;13.662;2022-09-09T20:44:32;3.10;;;0.85;;
31906;SDS011;18455;50.858;13.662;2022-09-09T20:49:32;2.15;;;1.10;;
31906;SDS011;18455;50.858;13.662;2022-09-09T20:54:35;3.90;;;1.23;;
31906;SDS011;18455;50.858;13.662;2022-09-09T20:59:37;2.35;;;1.08;;
31906;SDS011;18455;50.858;13.662;2022-09-09T21:04:38;2.88;;;1.48;;
31906;SDS011;18455;50.858;13.662;2022-09-09T21:09:39;1.95;;;1.65;;
31906;SDS011;18455;50.858;13.662;2022-09-09T21:14:40;1.90;;;1.40;;
31906;SDS011;18455;50.858;13.662;2022-09-09T21:19:40;2.95;;;1.85;;
31906;SDS011;18455;50.858;13.662;2022-09-09T21:24:41;3.00;;;1.90;;
31906;SDS011;18455;50.858;13.662;2022-09-09T21:29:41;6.55;;;1.10;;
31906;SDS011;18455;50.858;13.662;2022-09-09T21:34:42;1.23;;;0.95;;
31906;SDS011;18455;50.858;13.662;2022-09-09T21:39:42;6.03;;;1.05;;
31906;SDS011;18455;50.858;13.662;2022-09-09T21:44:42;3.85;;;0.90;;
31906;SDS011;18455;50.858;13.662;2022-09-09T21:49:43;0.70;;;0.70;;
31906;SDS011;18455;50.858;13.662;2022-09-09T21:54:43;1.48;;;0.70;;
31906;SDS011;18455;50.858;13.662;2022-09-09T21:59:44;3.70;;;1.05;;
31906;SDS011;18455;50.858;13.662;2022-09-09T22:04:44;1.83;;;0.80;;
31906;SDS011;18455;50.858;13.662;2022-09-09T22:09:44;0.95;;;0.63;;
31906;SDS011;18455;50.858;13.662;2022-09-09T22:14:45;1.52;;;0.95;;
31906;SDS011;18455;50.858;13.662;2022-09-09T22:19:45;1.88;;;1.00;;
31906;SDS011;18455;50.858;13.662;2022-09-09T22:24:45;1.73;;;0.75;;
31906;SDS011;18455;50.858;13.662;2022-09-09T22:29:46;4.30;;;1.10;;
31906;SDS011;18455;50.858;13.662;2022-09-09T22:34:46;1.38;;;0.88;;
31906;SDS011;18455;50.858;13.662;2022-09-09T22:39:46;1.73;;;0.90;;
31906;SDS011;18455;50.858;13.662;2022-09-09T22:44:48;2.83;;;0.98;;
31906;SDS011;18455;50.858;13.662;2022-09-09T22:49:48;5.47;;;0.75;;
31906;SDS011;18455;50.858;13.662;2022-09-09T22:54:49;1.92;;;0.88;;
31906;SDS011;18455;50.858;13.662;2022-09-09T22:59:51;1.40;;;1.00;;
31906;SDS011;18455;50.858;13.662;2022-09-09T23:04:51;1.20;;;0.80;;
31906;SDS011;18455;50.858;13.662;2022-09-09T23:09:51;0.75;;;0.65;;
31906;SDS011;18455;50.858;13.662;2022-09-09T23:14:52;1.58;;;0.85;;
31906;SDS011;18455;50.858;13.662;2022-09-09T23:19:55;1.90;;;0.80;;
31906;SDS011;18455;50.858;13.662;2022-09-09T23:24:57;1.25;;;0.70;;
31906;SDS011;18455;50.858;13.662;2022-09-09T23:29:57;1.60;;;1.00;;
31906;SDS011;18455;50.858;13.662;2022-09-09T23:34:57;1.45;;;0.80;;
31906;SDS011;18455;50.858;13.662;2022-09-09T23:39:58;2.80;;;1.30;;
31906;SDS011;18455;50.858;13.662;2022-09-09T23:44:58;2.85;;;0.88;;
31906;SDS011;18455;50.858;13.662;2022-09-09T23:49:59;1.95;;;0.93;;
31906;SDS011;18455;50.858;13.662;2022-09-09T23:54:59;2.35;;;0.80;;
